Grete Maersk — OYCY2 — position and weather

sailwx.info

Track history (hours):
 
Tides and Currents Weather Stations Pressure Air Temp Water Temp Dewpoint Dewpoint Depression Visibility Wind Speed Wind Dir Waves Ship Positions

Grete Maersk

Last reported at 2017-Oct-12 16:43 UTC. Time now 2017-Oct-19 20:28 UTC.
Position N 38°10' W 125°13'.

MMSI: 218824136.

Date/timePositionNaut miles runAvg speedWind from/ knotsBaromVisibWave heightAir tempDewpointWater temp
2017-Oct-12 16:43N 38°10' W 125°13'315.8
2017-Oct-12 16:30N 38°10' W 125°09'815.9
2017-Oct-12 16:00N 38°10' W 124°58'815.8
2017-Oct-12 15:30N 38°10' W 124°48'815.4
2017-Oct-12 14:58N 38°09' W 124°38'2815.4
2017-Oct-12 13:09N 38°09' W 124°02'315.5
2017-Oct-12 12:58N 38°09' W 123°59'715.0
2017-Oct-12 12:30N 38°09' W 123°50'815.4
2017-Oct-12 12:00N 38°09' W 123°40'815.2
2017-Oct-12 11:31N 38°10' W 123°31'714.7
2017-Oct-12 11:00N 38°09' W 123°21'815.1
2017-Oct-12 10:30N 38°04' W 123°15'713.7
2017-Oct-12 10:00N 37°59' W 123°09'611.2
2017-Oct-12 09:30N 37°56' W 123°03'611.8
2017-Oct-12 09:00N 37°53' W 122°56'611.9
2017-Oct-12 08:30N 37°50' W 122°50'612.0
2017-Oct-12 08:00N 37°47' W 122°43'611.2
2017-Oct-12 07:31N 37°46' W 122°36'917.0
2017-Oct-12 07:01N 37°51' W 122°27'510.5
2017-Oct-12 06:31N 37°48' W 122°21'2 3.3
2017-Oct-12 06:00N 37°48' W 122°19'0 0.1
2017-Oct-12 05:29N 37°48' W 122°19'0 0.0
2017-Oct-12 04:59N 37°48' W 122°19'0 0.0
2017-Oct-12 04:29N 37°48' W 122°19'0 0.0
2017-Oct-12 03:59N 37°48' W 122°19'0 0.1
2017-Oct-12 03:29N 37°48' W 122°19'0 0.0
2017-Oct-12 02:59N 37°48' W 122°19'0 0.1
2017-Oct-12 02:29N 37°48' W 122°19'0 0.0
2017-Oct-12 01:59N 37°48' W 122°19'0 0.0
2017-Oct-12 01:29N 37°48' W 122°19'0 0.0
2017-Oct-12 00:59N 37°48' W 122°19'0 0.0
2017-Oct-12 00:29N 37°48' W 122°19'0 0.0
2017-Oct-11 23:59N 37°48' W 122°19'0 0.0
2017-Oct-11 23:29N 37°48' W 122°19'0 0.0
2017-Oct-11 22:59N 37°48' W 122°19'0 0.0
2017-Oct-11 22:29N 37°48' W 122°19'0 0.0
2017-Oct-11 21:59N 37°48' W 122°19'0 0.0
2017-Oct-11 21:29N 37°48' W 122°19'0 0.0
2017-Oct-11 20:59N 37°48' W 122°19'0 0.0
2017-Oct-11 20:29N 37°48' W 122°19'0 0.0
2017-Oct-11 19:59N 37°48' W 122°19'0 0.0
2017-Oct-11 19:29N 37°48' W 122°19'0 0.0
2017-Oct-11 18:59N 37°48' W 122°19'0 0.0
2017-Oct-11 18:29N 37°48' W 122°19'0 0.0
2017-Oct-11 17:59N 37°48' W 122°19'0 0.0
2017-Oct-11 17:29N 37°48' W 122°19'0 0.0
2017-Oct-11 16:59N 37°48' W 122°19'0 0.0
2017-Oct-11 00:00N 37°48' W 122°19'1 2.3
2017-Oct-10 23:30N 37°48' W 122°17'1 2.9
2017-Oct-10 23:00N 37°48' W 122°19'3 5.5
2017-Oct-10 22:30N 37°48' W 122°23'4 8.7
2017-Oct-10 22:00N 37°49' W 122°28'714.9
2017-Oct-10 21:30N 37°46' W 122°37'5 9.1
2017-Oct-10 21:00N 37°43' W 122°41'4 7.8
2017-Oct-10 20:30N 37°39' W 122°40'5 9.6
2017-Oct-10 20:00N 37°34' W 122°40'5 9.4
2017-Oct-10 19:30N 37°30' W 122°40'5 9.7
2017-Oct-10 19:00N 37°25' W 122°40'5 9.8
2017-Oct-10 18:30N 37°20' W 122°40'510.3
2017-Oct-10 18:00N 37°15' W 122°39'5 9.6
2017-Oct-10 17:30N 37°10' W 122°38'5 9.5
2017-Oct-10 17:00N 37°05' W 122°37'510.0
2017-Oct-10 16:30N 37°01' W 122°35'5 9.9
2017-Oct-10 16:00N 36°56' W 122°32'510.0
2017-Oct-10 15:30N 36°52' W 122°30'5 9.7
2017-Oct-10 14:59N 36°47' W 122°27'6811.5
2017-Oct-10 09:05N 35°46' W 121°50'111.7
2017-Oct-10 09:00N 35°45' W 121°49'2111.4
2017-Oct-10 07:09N 35°27' W 121°35'211.1
2017-Oct-10 07:00N 35°26' W 121°34'610.9
2017-Oct-10 06:30N 35°21' W 121°31'611.1
2017-Oct-10 05:58N 35°16' W 121°27'511.1
2017-Oct-10 05:30N 35°11' W 121°24'611.5
2017-Oct-10 05:00N 35°06' W 121°21'611.3
2017-Oct-10 04:30N 35°02' W 121°17'611.2
2017-Oct-10 04:00N 34°57' W 121°14'611.6
2017-Oct-10 03:30N 34°52' W 121°10'611.2
2017-Oct-10 03:00N 34°47' W 121°06'611.5
2017-Oct-10 02:30N 34°42' W 121°03'611.8
2017-Oct-10 02:00N 34°37' W 120°59'611.6
2017-Oct-10 01:30N 34°32' W 120°55'611.6
2017-Oct-10 01:00N 34°27' W 120°52'711.8
2017-Oct-10 00:25N 34°24' W 120°44'512.3
2017-Oct-10 00:00N 34°23' W 120°38'712.1
2017-Oct-09 23:25N 34°21' W 120°30'511.7
2017-Oct-09 23:00N 34°20' W 120°24'611.5
2017-Oct-09 22:30N 34°19' W 120°18'611.7
2017-Oct-09 22:00N 34°17' W 120°11'611.9
2017-Oct-09 21:30N 34°15' W 120°04'611.7
2017-Oct-09 21:00N 34°14' W 119°57'612.0
2017-Oct-09 20:30N 34°12' W 119°50'612.4
2017-Oct-09 20:00N 34°11' W 119°43'713.1
2017-Oct-09 19:30N 34°09' W 119°35'713.1
2017-Oct-09 19:00N 34°07' W 119°28'713.3
2017-Oct-09 18:30N 34°05' W 119°20'612.1
2017-Oct-09 18:00N 34°03' W 119°13'612.2
2017-Oct-09 17:30N 34°00' W 119°07'612.5
2017-Oct-09 16:59N 33°57' W 119°00'612.5
2017-Oct-09 16:30N 33°54' W 118°54'612.2
2017-Oct-09 16:00N 33°51' W 118°47'611.8
2017-Oct-09 15:30N 33°48' W 118°41'611.7
2017-Oct-09 15:00N 33°45' W 118°35'611.5
2017-Oct-09 14:30N 33°42' W 118°29'611.4
2017-Oct-09 14:00N 33°40' W 118°23'510.7
2017-Oct-09 13:31N 33°39' W 118°17'4 8.2
2017-Oct-09 13:00N 33°43' W 118°15'1 2.4
2017-Oct-09 12:30N 33°44' W 118°15'0 0.3
2017-Oct-09 11:58N 33°44' W 118°15'0 0.0
2017-Oct-09 11:28N 33°44' W 118°15'0 0.0
2017-Oct-09 10:58N 33°44' W 118°15'0 0.0
2017-Oct-09 10:28N 33°44' W 118°15'0 0.0
2017-Oct-09 09:58N 33°44' W 118°15'0 0.0
2017-Oct-09 09:28N 33°44' W 118°15'0 0.1
2017-Oct-09 08:58N 33°44' W 118°15'0 0.0
2017-Oct-09 08:22N 33°44' W 118°15'0 0.0
2017-Oct-09 07:58N 33°44' W 118°15'0 0.0
2017-Oct-09 07:28N 33°44' W 118°15'0 0.0
2017-Oct-09 06:55N 33°44' W 118°15'0 0.0
2017-Oct-09 06:28N 33°44' W 118°15'0 0.0
2017-Oct-09 05:58N 33°44' W 118°15'0 0.0
2017-Oct-09 05:28N 33°44' W 118°15'0 0.0
2017-Oct-09 04:58N 33°44' W 118°15'0 0.0
2017-Oct-09 04:22N 33°44' W 118°15'0 0.0
2017-Oct-09 03:58N 33°44' W 118°15'0 0.0
2017-Oct-09 03:28N 33°44' W 118°15'0 0.0
2017-Oct-09 02:58N 33°44' W 118°15'0 0.0
2017-Oct-09 02:28N 33°44' W 118°15'0 0.0
2017-Oct-09 01:58N 33°44' W 118°15'0 0.0
2017-Oct-09 01:28N 33°44' W 118°15'0 0.0
2017-Oct-09 00:58N 33°44' W 118°15'0 0.0
2017-Oct-09 00:25N 33°44' W 118°15'0 0.0
2017-Oct-08 23:58N 33°44' W 118°15'0 0.0
2017-Oct-08 23:28N 33°44' W 118°15'0 0.1
2017-Oct-08 22:58N 33°44' W 118°15'0 0.1
2017-Oct-08 22:28N 33°44' W 118°15'0 0.0
2017-Oct-08 21:58N 33°44' W 118°15'0 0.0
2017-Oct-08 21:28N 33°44' W 118°15'0 0.0
2017-Oct-08 20:58N 33°44' W 118°15'0 0.0
2017-Oct-08 20:28N 33°44' W 118°15'0 0.1
2017-Oct-08 19:58N 33°44' W 118°15'0 0.0
2017-Oct-08 19:28N 33°44' W 118°15'0 0.0
2017-Oct-08 18:58N 33°44' W 118°15'0 0.0
2017-Oct-08 18:28N 33°44' W 118°15'0 0.1
2017-Oct-08 17:58N 33°44' W 118°15'0 0.1
2017-Oct-08 17:28N 33°44' W 118°15'0 0.0
2017-Oct-08 16:58N 33°44' W 118°15'0 0.0
2017-Oct-08 16:28N 33°44' W 118°15'0 0.0
2017-Oct-08 15:58N 33°44' W 118°15'0 0.1
2017-Oct-08 15:28N 33°44' W 118°15'0 0.0
2017-Oct-08 14:58N 33°44' W 118°15'0 0.0
2017-Oct-08 14:28N 33°44' W 118°15'0 0.0
2017-Oct-08 13:58N 33°44' W 118°15'0 0.1
2017-Oct-08 13:28N 33°44' W 118°15'0 0.0
2017-Oct-08 12:58N 33°44' W 118°15'0 0.0
2017-Oct-08 12:28N 33°44' W 118°15'0 0.0
2017-Oct-08 11:58N 33°44' W 118°15'0 0.0
2017-Oct-08 11:28N 33°44' W 118°15'0 0.0
2017-Oct-08 10:58N 33°44' W 118°15'0 0.0
2017-Oct-08 10:28N 33°44' W 118°15'0 0.1
2017-Oct-08 09:58N 33°44' W 118°15'0 0.1
2017-Oct-08 09:28N 33°44' W 118°15'0 0.0
2017-Oct-08 08:58N 33°44' W 118°15'0 0.0
2017-Oct-08 08:28N 33°44' W 118°15'0 0.1
2017-Oct-08 07:58N 33°44' W 118°15'0 0.1
2017-Oct-08 07:28N 33°44' W 118°15'0 0.0
2017-Oct-08 06:58N 33°44' W 118°15'0 0.0
2017-Oct-08 06:28N 33°44' W 118°15'0 0.0
2017-Oct-08 05:58N 33°44' W 118°15'0 0.0
2017-Oct-08 05:28N 33°44' W 118°15'0 0.0
2017-Oct-08 04:58N 33°44' W 118°15'0 0.0
2017-Oct-08 04:28N 33°44' W 118°15'0 0.0
2017-Oct-08 03:58N 33°44' W 118°15'0 0.0
2017-Oct-08 03:28N 33°44' W 118°15'0 0.0
2017-Oct-08 02:58N 33°44' W 118°15'0 0.0
2017-Oct-08 02:28N 33°44' W 118°15'0 0.1
2017-Oct-08 01:58N 33°44' W 118°15'0 0.1
2017-Oct-08 01:28N 33°44' W 118°15'0 0.0
2017-Oct-08 00:58N 33°44' W 118°15'0 0.0
2017-Oct-08 00:28N 33°44' W 118°15'0 0.0
2017-Oct-07 23:58N 33°44' W 118°15'0 0.3
2017-Oct-07 23:28N 33°44' W 118°15'0 0.3
2017-Oct-07 22:58N 33°44' W 118°15'0 0.0
2017-Oct-07 22:28N 33°44' W 118°15'0 0.0
2017-Oct-07 21:58N 33°44' W 118°15'0 0.2
2017-Oct-07 21:28N 33°44' W 118°15'0 0.2
2017-Oct-07 20:58N 33°44' W 118°15'0 0.0
2017-Oct-07 20:28N 33°44' W 118°15'0 0.0
2017-Oct-07 19:58N 33°44' W 118°15'0 0.0
2017-Oct-07 19:28N 33°44' W 118°15'0 0.0
2017-Oct-07 18:58N 33°44' W 118°15'0 0.0
2017-Oct-07 18:28N 33°44' W 118°15'0 0.0
2017-Oct-07 17:58N 33°44' W 118°15'0 0.0
2017-Oct-07 17:28N 33°44' W 118°15'0 0.0
2017-Oct-07 16:58N 33°44' W 118°15'0 0.0
2017-Oct-07 16:28N 33°44' W 118°15'0 0.0
2017-Oct-07 15:58N 33°44' W 118°15'0 0.0
2017-Oct-07 15:28N 33°44' W 118°15'0 0.0
2017-Oct-07 14:58N 33°44' W 118°15'0 0.0
2017-Oct-07 14:28N 33°44' W 118°15'0 0.0
2017-Oct-07 13:58N 33°44' W 118°15'0 0.0
2017-Oct-07 13:28N 33°44' W 118°15'0 0.0
2017-Oct-07 12:58N 33°44' W 118°15'0 0.0
2017-Oct-07 12:28N 33°44' W 118°15'0 0.0
2017-Oct-07 11:58N 33°44' W 118°15'0 0.0
2017-Oct-07 11:28N 33°44' W 118°15'0 0.0
2017-Oct-07 10:58N 33°44' W 118°15'0 0.0
2017-Oct-07 10:28N 33°44' W 118°15'0 0.0
2017-Oct-07 09:58N 33°44' W 118°15'0 0.0
2017-Oct-07 09:28N 33°44' W 118°15'0 0.1
2017-Oct-07 08:58N 33°44' W 118°15'0 0.1
2017-Oct-07 08:28N 33°44' W 118°15'0 0.0
2017-Oct-07 07:58N 33°44' W 118°15'0 0.0
2017-Oct-07 07:28N 33°44' W 118°15'0 0.0
2017-Oct-07 06:58N 33°44' W 118°15'0 0.0
2017-Oct-07 06:28N 33°44' W 118°15'0 0.0
2017-Oct-07 05:58N 33°44' W 118°15'0 0.0
2017-Oct-07 05:28N 33°44' W 118°15'0 0.0
2017-Oct-07 04:58N 33°44' W 118°15'0 0.0
2017-Oct-07 04:28N 33°44' W 118°15'0 0.0
2017-Oct-07 03:58N 33°44' W 118°15'0 0.0
2017-Oct-07 03:28N 33°44' W 118°15'0 0.0
2017-Oct-07 02:58N 33°44' W 118°15'0 0.0
2017-Oct-07 02:28N 33°44' W 118°15'0 0.0
2017-Oct-07 01:58N 33°44' W 118°15'0 0.0
2017-Oct-07 01:28N 33°44' W 118°15'0 0.1
2017-Oct-07 00:58N 33°44' W 118°15'0 0.1
2017-Oct-07 00:28N 33°44' W 118°15'0 0.0
2017-Oct-06 23:58N 33°44' W 118°15'0 0.0
2017-Oct-06 23:28N 33°44' W 118°15'0 0.0
2017-Oct-06 22:58N 33°44' W 118°15'0 0.0
2017-Oct-06 22:28N 33°44' W 118°15'0 0.0
2017-Oct-06 21:58N 33°44' W 118°15'0 0.0
2017-Oct-06 21:28N 33°44' W 118°15'0 0.0
2017-Oct-06 20:58N 33°44' W 118°15'0 0.0
2017-Oct-06 20:28N 33°44' W 118°15'0 0.0
2017-Oct-06 19:58N 33°44' W 118°15'0 0.0
2017-Oct-06 19:28N 33°44' W 118°15'0 0.0
2017-Oct-06 18:58N 33°44' W 118°15'0 0.0
2017-Oct-06 18:28N 33°44' W 118°15'0 0.0
2017-Oct-06 17:58N 33°44' W 118°15'0 0.0
2017-Oct-06 17:28N 33°44' W 118°15'0 0.0
2017-Oct-06 16:58N 33°44' W 118°15'0 0.0
2017-Oct-06 16:28N 33°44' W 118°15'0 0.0
2017-Oct-06 15:52N 33°44' W 118°15'0 0.1
2017-Oct-06 15:28N 33°44' W 118°15'0 0.0
2017-Oct-06 14:58N 33°44' W 118°15'0 0.0
2017-Oct-06 14:28N 33°44' W 118°15'0 0.0
2017-Oct-06 13:58N 33°44' W 118°15'0 0.0
2017-Oct-06 13:28N 33°44' W 118°15'0 0.0
2017-Oct-06 12:55N 33°44' W 118°15'0 0.0
2017-Oct-06 12:28N 33°44' W 118°15'0 0.0
2017-Oct-06 11:58N 33°44' W 118°15'0 0.0
2017-Oct-06 11:28N 33°44' W 118°15'0 0.0
2017-Oct-06 10:58N 33°44' W 118°15'0 0.0
2017-Oct-06 10:28N 33°44' W 118°15'0 0.0
2017-Oct-06 09:58N 33°44' W 118°15'0 0.0
2017-Oct-06 09:28N 33°44' W 118°15'0 0.2
2017-Oct-06 08:55N 33°44' W 118°15'0 0.2
2017-Oct-06 08:28N 33°44' W 118°15'0 0.0
2017-Oct-06 07:58N 33°44' W 118°15'0 0.0
2017-Oct-06 07:28N 33°44' W 118°15'0 0.0
2017-Oct-06 06:58N 33°44' W 118°15'0 0.0
2017-Oct-06 06:28N 33°44' W 118°15'0 0.0
2017-Oct-06 05:58N 33°44' W 118°15'0 0.0
2017-Oct-06 05:28N 33°44' W 118°15'0 0.0
2017-Oct-06 04:58N 33°44' W 118°15'0 0.0
2017-Oct-06 04:28N 33°44' W 118°15'0 0.0
2017-Oct-06 03:58N 33°44' W 118°15'0 0.0
2017-Oct-06 03:28N 33°44' W 118°15'0 0.0
2017-Oct-06 02:58N 33°44' W 118°15'0 0.0
2017-Oct-06 02:28N 33°44' W 118°15'0 0.0
2017-Oct-06 01:58N 33°44' W 118°15'0 0.1
2017-Oct-06 01:28N 33°44' W 118°15'0 0.0
2017-Oct-06 00:55N 33°44' W 118°15'0 0.0
2017-Oct-06 00:28N 33°44' W 118°15'0 0.0
2017-Oct-05 23:55N 33°44' W 118°15'0 0.0
2017-Oct-05 23:28N 33°44' W 118°15'0 0.0
2017-Oct-05 22:58N 33°44' W 118°15'0 0.0
2017-Oct-05 22:28N 33°44' W 118°15'0 0.0
2017-Oct-05 21:58N 33°44' W 118°15'0 0.0
2017-Oct-05 21:28N 33°44' W 118°15'0 0.0
2017-Oct-05 20:58N 33°44' W 118°15'0 0.0
2017-Oct-05 20:28N 33°44' W 118°15'0 0.0
2017-Oct-05 19:58N 33°44' W 118°15'0 0.0
2017-Oct-05 19:28N 33°44' W 118°15'0 0.0
2017-Oct-05 18:58N 33°44' W 118°15'0 0.0
2017-Oct-05 18:28N 33°44' W 118°15'0 0.0
2017-Oct-05 17:58N 33°44' W 118°15'0 0.0
2017-Oct-05 17:28N 33°44' W 118°15'0 0.0
2017-Oct-05 16:58N 33°44' W 118°15'0 0.0
2017-Oct-05 15:28N 33°44' W 118°15'0 0.0
2017-Oct-05 14:58N 33°44' W 118°15'0 0.0
2017-Oct-05 14:28N 33°44' W 118°15'0 0.0
2017-Oct-05 13:58N 33°44' W 118°15'0 0.0
2017-Oct-05 13:25N 33°44' W 118°15'0 0.0
2017-Oct-05 12:55N 33°44' W 118°15'0 0.0
2017-Oct-05 12:28N 33°44' W 118°15'0 0.0
2017-Oct-05 11:58N 33°44' W 118°15'0 0.0
2017-Oct-05 11:30N 33°44' W 118°15'1 1.5
2017-Oct-05 11:00N 33°44' W 118°16'1 1.5
2017-Oct-05 10:30N 33°43' W 118°16'3 5.8
2017-Oct-05 10:01N 33°40' W 118°14'510.1
2017-Oct-05 09:31N 33°36' W 118°17'510.7
2017-Oct-05 09:00N 33°37' W 118°23'611.1
2017-Oct-05 08:30N 33°40' W 118°29'510.6
2017-Oct-05 08:00N 33°43' W 118°34'510.9
2017-Oct-05 07:30N 33°45' W 118°40'511.0
2017-Oct-05 07:00N 33°48' W 118°46'510.9
2017-Oct-05 06:30N 33°51' W 118°52'510.6
2017-Oct-05 06:00N 33°53' W 118°57'510.8
2017-Oct-05 05:30N 33°56' W 119°03'510.8
2017-Oct-05 05:00N 33°59' W 119°08'510.7
2017-Oct-05 04:31N 34°01' W 119°14'510.4
2017-Oct-05 04:01N 34°03' W 119°20'510.1
2017-Oct-05 03:30N 34°05' W 119°26'510.1
2017-Oct-05 03:00N 34°06' W 119°32'510.4
2017-Oct-05 02:30N 34°07' W 119°38'510.6
2017-Oct-05 02:00N 34°09' W 119°44'510.4
2017-Oct-05 01:30N 34°10' W 119°50'510.2
2017-Oct-05 01:00N 34°12' W 119°56'510.3
2017-Oct-05 00:30N 34°13' W 120°02'510.4
2017-Oct-05 00:01N 34°14' W 120°08'610.8
2017-Oct-04 23:29N 34°16' W 120°15'610.7
2017-Oct-04 22:58N 34°17' W 120°21'510.5
2017-Oct-04 22:29N 34°18' W 120°27'510.3
2017-Oct-04 22:00N 34°20' W 120°33'610.9
2017-Oct-04 21:28N 34°21' W 120°40'612.2
2017-Oct-04 20:59N 34°23' W 120°46'917.8
2017-Oct-04 20:28N 34°27' W 120°57'818.1
2017-Oct-04 20:00N 34°31' W 121°05'918.0
2017-Oct-04 19:31N 34°36' W 121°14'918.3
2017-Oct-04 19:01N 34°41' W 121°23'918.1
2017-Oct-04 18:31N 34°46' W 121°33'919.0
2017-Oct-04 18:01N 34°51' W 121°42'1018.9
2017-Oct-04 17:29N 34°57' W 121°52'919.4
2017-Oct-04 17:00N 35°02' W 122°02'1020.1
2017-Oct-04 16:31N 35°08' W 122°12'1020.1
2017-Oct-04 16:00N 35°13' W 122°22'1020.0
2017-Oct-04 15:30N 35°19' W 122°32'1121.2
2017-Oct-04 15:01N 35°24' W 122°43'1020.9
2017-Oct-04 14:31N 35°30' W 122°54'1121.1
2017-Oct-04 14:01N 35°35' W 123°05'1121.4
2017-Oct-04 13:31N 35°42' W 123°16'1121.5
2017-Oct-04 13:01N 35°49' W 123°26'1121.6
2017-Oct-04 12:31N 35°56' W 123°36'1121.5
2017-Oct-04 12:00N 36°02' W 123°46'1121.6
2017-Oct-04 11:30N 36°09' W 123°57'1121.6
2017-Oct-04 10:59N 36°16' W 124°08'1021.6
2017-Oct-04 10:30N 36°23' W 124°18'3521.6
2017-Oct-04 08:54N 36°44' W 124°52'1421.5
2017-Oct-04 08:16N 36°53' W 125°05'521.2
2017-Oct-04 08:00N 36°56' W 125°10'1121.2
2017-Oct-04 07:30N 37°03' W 125°21'1021.1
2017-Oct-04 07:00N 37°09' W 125°31'1020.7
2017-Oct-04 06:30N 37°15' W 125°42'1520.9
2017-Oct-04 05:47N 37°25' W 125°56'621.1
2017-Oct-04 05:30N 37°29' W 126°02'1121.1
2017-Oct-04 05:00N 37°35' W 126°13'  
Track history (hours):
 
Tides and Currents Weather Stations Pressure Air Temp Water Temp Dewpoint Dewpoint Depression Visibility Wind Speed Wind Dir Waves Ship Positions

Grete Maersk

Last reported at 2017-Oct-12 16:43 UTC. Time now 2017-Oct-19 20:28 UTC.
Position N 38°10' W 125°13'.

MMSI: 218824136.

Date/timePositionNaut miles runAvg speedWind from/ knotsBaromVisibWave heightAir tempDewpointWater temp
2017-Oct-12 16:43N 38°10' W 125°13'315.8
2017-Oct-12 16:30N 38°10' W 125°09'815.9
2017-Oct-12 16:00N 38°10' W 124°58'815.8
2017-Oct-12 15:30N 38°10' W 124°48'815.4
2017-Oct-12 14:58N 38°09' W 124°38'2815.4
2017-Oct-12 13:09N 38°09' W 124°02'315.5
2017-Oct-12 12:58N 38°09' W 123°59'715.0
2017-Oct-12 12:30N 38°09' W 123°50'815.4
2017-Oct-12 12:00N 38°09' W 123°40'815.2
2017-Oct-12 11:31N 38°10' W 123°31'714.7
2017-Oct-12 11:00N 38°09' W 123°21'815.1
2017-Oct-12 10:30N 38°04' W 123°15'713.7
2017-Oct-12 10:00N 37°59' W 123°09'611.2
2017-Oct-12 09:30N 37°56' W 123°03'611.8
2017-Oct-12 09:00N 37°53' W 122°56'611.9
2017-Oct-12 08:30N 37°50' W 122°50'612.0
2017-Oct-12 08:00N 37°47' W 122°43'611.2
2017-Oct-12 07:31N 37°46' W 122°36'917.0
2017-Oct-12 07:01N 37°51' W 122°27'510.5
2017-Oct-12 06:31N 37°48' W 122°21'2 3.3
2017-Oct-12 06:00N 37°48' W 122°19'0 0.1
2017-Oct-12 05:29N 37°48' W 122°19'0 0.0
2017-Oct-12 04:59N 37°48' W 122°19'0 0.0
2017-Oct-12 04:29N 37°48' W 122°19'0 0.0
2017-Oct-12 03:59N 37°48' W 122°19'0 0.1
2017-Oct-12 03:29N 37°48' W 122°19'0 0.0
2017-Oct-12 02:59N 37°48' W 122°19'0 0.1
2017-Oct-12 02:29N 37°48' W 122°19'0 0.0
2017-Oct-12 01:59N 37°48' W 122°19'0 0.0
2017-Oct-12 01:29N 37°48' W 122°19'0 0.0
2017-Oct-12 00:59N 37°48' W 122°19'0 0.0
2017-Oct-12 00:29N 37°48' W 122°19'0 0.0
2017-Oct-11 23:59N 37°48' W 122°19'0 0.0
2017-Oct-11 23:29N 37°48' W 122°19'0 0.0
2017-Oct-11 22:59N 37°48' W 122°19'0 0.0
2017-Oct-11 22:29N 37°48' W 122°19'0 0.0
2017-Oct-11 21:59N 37°48' W 122°19'0 0.0
2017-Oct-11 21:29N 37°48' W 122°19'0 0.0
2017-Oct-11 20:59N 37°48' W 122°19'0 0.0
2017-Oct-11 20:29N 37°48' W 122°19'0 0.0
2017-Oct-11 19:59N 37°48' W 122°19'0 0.0
2017-Oct-11 19:29N 37°48' W 122°19'0 0.0
2017-Oct-11 18:59N 37°48' W 122°19'0 0.0
2017-Oct-11 18:29N 37°48' W 122°19'0 0.0
2017-Oct-11 17:59N 37°48' W 122°19'0 0.0
2017-Oct-11 17:29N 37°48' W 122°19'0 0.0
2017-Oct-11 16:59N 37°48' W 122°19'0 0.0
2017-Oct-11 00:00N 37°48' W 122°19'1 2.3
2017-Oct-10 23:30N 37°48' W 122°17'1 2.9
2017-Oct-10 23:00N 37°48' W 122°19'3 5.5
2017-Oct-10 22:30N 37°48' W 122°23'4 8.7
2017-Oct-10 22:00N 37°49' W 122°28'714.9
2017-Oct-10 21:30N 37°46' W 122°37'5 9.1
2017-Oct-10 21:00N 37°43' W 122°41'4 7.8
2017-Oct-10 20:30N 37°39' W 122°40'5 9.6
2017-Oct-10 20:00N 37°34' W 122°40'5 9.4
2017-Oct-10 19:30N 37°30' W 122°40'5 9.7
2017-Oct-10 19:00N 37°25' W 122°40'5 9.8
2017-Oct-10 18:30N 37°20' W 122°40'510.3
2017-Oct-10 18:00N 37°15' W 122°39'5 9.6
2017-Oct-10 17:30N 37°10' W 122°38'5 9.5
2017-Oct-10 17:00N 37°05' W 122°37'510.0
2017-Oct-10 16:30N 37°01' W 122°35'5 9.9
2017-Oct-10 16:00N 36°56' W 122°32'510.0
2017-Oct-10 15:30N 36°52' W 122°30'5 9.7
2017-Oct-10 14:59N 36°47' W 122°27'6811.5
2017-Oct-10 09:05N 35°46' W 121°50'111.7
2017-Oct-10 09:00N 35°45' W 121°49'2111.4
2017-Oct-10 07:09N 35°27' W 121°35'211.1
2017-Oct-10 07:00N 35°26' W 121°34'610.9
2017-Oct-10 06:30N 35°21' W 121°31'611.1
2017-Oct-10 05:58N 35°16' W 121°27'511.1
2017-Oct-10 05:30N 35°11' W 121°24'611.5
2017-Oct-10 05:00N 35°06' W 121°21'611.3
2017-Oct-10 04:30N 35°02' W 121°17'611.2
2017-Oct-10 04:00N 34°57' W 121°14'611.6
2017-Oct-10 03:30N 34°52' W 121°10'611.2
2017-Oct-10 03:00N 34°47' W 121°06'611.5
2017-Oct-10 02:30N 34°42' W 121°03'611.8
2017-Oct-10 02:00N 34°37' W 120°59'611.6
2017-Oct-10 01:30N 34°32' W 120°55'611.6
2017-Oct-10 01:00N 34°27' W 120°52'711.8
2017-Oct-10 00:25N 34°24' W 120°44'512.3
2017-Oct-10 00:00N 34°23' W 120°38'712.1
2017-Oct-09 23:25N 34°21' W 120°30'511.7
2017-Oct-09 23:00N 34°20' W 120°24'611.5
2017-Oct-09 22:30N 34°19' W 120°18'611.7
2017-Oct-09 22:00N 34°17' W 120°11'611.9
2017-Oct-09 21:30N 34°15' W 120°04'611.7
2017-Oct-09 21:00N 34°14' W 119°57'612.0
2017-Oct-09 20:30N 34°12' W 119°50'612.4
2017-Oct-09 20:00N 34°11' W 119°43'713.1
2017-Oct-09 19:30N 34°09' W 119°35'713.1
2017-Oct-09 19:00N 34°07' W 119°28'713.3
2017-Oct-09 18:30N 34°05' W 119°20'612.1
2017-Oct-09 18:00N 34°03' W 119°13'612.2
2017-Oct-09 17:30N 34°00' W 119°07'612.5
2017-Oct-09 16:59N 33°57' W 119°00'612.5
2017-Oct-09 16:30N 33°54' W 118°54'612.2
2017-Oct-09 16:00N 33°51' W 118°47'611.8
2017-Oct-09 15:30N 33°48' W 118°41'611.7
2017-Oct-09 15:00N 33°45' W 118°35'611.5
2017-Oct-09 14:30N 33°42' W 118°29'611.4
2017-Oct-09 14:00N 33°40' W 118°23'510.7
2017-Oct-09 13:31N 33°39' W 118°17'4 8.2
2017-Oct-09 13:00N 33°43' W 118°15'1 2.4
2017-Oct-09 12:30N 33°44' W 118°15'0 0.3
2017-Oct-09 11:58N 33°44' W 118°15'0 0.0
2017-Oct-09 11:28N 33°44' W 118°15'0 0.0
2017-Oct-09 10:58N 33°44' W 118°15'0 0.0
2017-Oct-09 10:28N 33°44' W 118°15'0 0.0
2017-Oct-09 09:58N 33°44' W 118°15'0 0.0
2017-Oct-09 09:28N 33°44' W 118°15'0 0.1
2017-Oct-09 08:58N 33°44' W 118°15'0 0.0
2017-Oct-09 08:22N 33°44' W 118°15'0 0.0
2017-Oct-09 07:58N 33°44' W 118°15'0 0.0
2017-Oct-09 07:28N 33°44' W 118°15'0 0.0
2017-Oct-09 06:55N 33°44' W 118°15'0 0.0
2017-Oct-09 06:28N 33°44' W 118°15'0 0.0
2017-Oct-09 05:58N 33°44' W 118°15'0 0.0
2017-Oct-09 05:28N 33°44' W 118°15'0 0.0
2017-Oct-09 04:58N 33°44' W 118°15'0 0.0
2017-Oct-09 04:22N 33°44' W 118°15'0 0.0
2017-Oct-09 03:58N 33°44' W 118°15'0 0.0
2017-Oct-09 03:28N 33°44' W 118°15'0 0.0
2017-Oct-09 02:58N 33°44' W 118°15'0 0.0
2017-Oct-09 02:28N 33°44' W 118°15'0 0.0
2017-Oct-09 01:58N 33°44' W 118°15'0 0.0
2017-Oct-09 01:28N 33°44' W 118°15'0 0.0
2017-Oct-09 00:58N 33°44' W 118°15'0 0.0
2017-Oct-09 00:25N 33°44' W 118°15'0 0.0
2017-Oct-08 23:58N 33°44' W 118°15'0 0.0
2017-Oct-08 23:28N 33°44' W 118°15'0 0.1
2017-Oct-08 22:58N 33°44' W 118°15'0 0.1
2017-Oct-08 22:28N 33°44' W 118°15'0 0.0
2017-Oct-08 21:58N 33°44' W 118°15'0 0.0
2017-Oct-08 21:28N 33°44' W 118°15'0 0.0
2017-Oct-08 20:58N 33°44' W 118°15'0 0.0
2017-Oct-08 20:28N 33°44' W 118°15'0 0.1
2017-Oct-08 19:58N 33°44' W 118°15'0 0.0
2017-Oct-08 19:28N 33°44' W 118°15'0 0.0
2017-Oct-08 18:58N 33°44' W 118°15'0 0.0
2017-Oct-08 18:28N 33°44' W 118°15'0 0.1
2017-Oct-08 17:58N 33°44' W 118°15'0 0.1
2017-Oct-08 17:28N 33°44' W 118°15'0 0.0
2017-Oct-08 16:58N 33°44' W 118°15'0 0.0
2017-Oct-08 16:28N 33°44' W 118°15'0 0.0
2017-Oct-08 15:58N 33°44' W 118°15'0 0.1
2017-Oct-08 15:28N 33°44' W 118°15'0 0.0
2017-Oct-08 14:58N 33°44' W 118°15'0 0.0
2017-Oct-08 14:28N 33°44' W 118°15'0 0.0
2017-Oct-08 13:58N 33°44' W 118°15'0 0.1
2017-Oct-08 13:28N 33°44' W 118°15'0 0.0
2017-Oct-08 12:58N 33°44' W 118°15'0 0.0
2017-Oct-08 12:28N 33°44' W 118°15'0 0.0
2017-Oct-08 11:58N 33°44' W 118°15'0 0.0
2017-Oct-08 11:28N 33°44' W 118°15'0 0.0
2017-Oct-08 10:58N 33°44' W 118°15'0 0.0
2017-Oct-08 10:28N 33°44' W 118°15'0 0.1
2017-Oct-08 09:58N 33°44' W 118°15'0 0.1
2017-Oct-08 09:28N 33°44' W 118°15'0 0.0
2017-Oct-08 08:58N 33°44' W 118°15'0 0.0
2017-Oct-08 08:28N 33°44' W 118°15'0 0.1
2017-Oct-08 07:58N 33°44' W 118°15'0 0.1
2017-Oct-08 07:28N 33°44' W 118°15'0 0.0
2017-Oct-08 06:58N 33°44' W 118°15'0 0.0
2017-Oct-08 06:28N 33°44' W 118°15'0 0.0
2017-Oct-08 05:58N 33°44' W 118°15'0 0.0
2017-Oct-08 05:28N 33°44' W 118°15'0 0.0
2017-Oct-08 04:58N 33°44' W 118°15'0 0.0
2017-Oct-08 04:28N 33°44' W 118°15'0 0.0
2017-Oct-08 03:58N 33°44' W 118°15'0 0.0
2017-Oct-08 03:28N 33°44' W 118°15'0 0.0
2017-Oct-08 02:58N 33°44' W 118°15'0 0.0
2017-Oct-08 02:28N 33°44' W 118°15'0 0.1
2017-Oct-08 01:58N 33°44' W 118°15'0 0.1
2017-Oct-08 01:28N 33°44' W 118°15'0 0.0
2017-Oct-08 00:58N 33°44' W 118°15'0 0.0
2017-Oct-08 00:28N 33°44' W 118°15'0 0.0
2017-Oct-07 23:58N 33°44' W 118°15'0 0.3
2017-Oct-07 23:28N 33°44' W 118°15'0 0.3
2017-Oct-07 22:58N 33°44' W 118°15'0 0.0
2017-Oct-07 22:28N 33°44' W 118°15'0 0.0
2017-Oct-07 21:58N 33°44' W 118°15'0 0.2
2017-Oct-07 21:28N 33°44' W 118°15'0 0.2
2017-Oct-07 20:58N 33°44' W 118°15'0 0.0
2017-Oct-07 20:28N 33°44' W 118°15'0 0.0
2017-Oct-07 19:58N 33°44' W 118°15'0 0.0
2017-Oct-07 19:28N 33°44' W 118°15'0 0.0
2017-Oct-07 18:58N 33°44' W 118°15'0 0.0
2017-Oct-07 18:28N 33°44' W 118°15'0 0.0
2017-Oct-07 17:58N 33°44' W 118°15'0 0.0
2017-Oct-07 17:28N 33°44' W 118°15'0 0.0
2017-Oct-07 16:58N 33°44' W 118°15'0 0.0
2017-Oct-07 16:28N 33°44' W 118°15'0 0.0
2017-Oct-07 15:58N 33°44' W 118°15'0 0.0
2017-Oct-07 15:28N 33°44' W 118°15'0 0.0
2017-Oct-07 14:58N 33°44' W 118°15'0 0.0
2017-Oct-07 14:28N 33°44' W 118°15'0 0.0
2017-Oct-07 13:58N 33°44' W 118°15'0 0.0
2017-Oct-07 13:28N 33°44' W 118°15'0 0.0
2017-Oct-07 12:58N 33°44' W 118°15'0 0.0
2017-Oct-07 12:28N 33°44' W 118°15'0 0.0
2017-Oct-07 11:58N 33°44' W 118°15'0 0.0
2017-Oct-07 11:28N 33°44' W 118°15'0 0.0
2017-Oct-07 10:58N 33°44' W 118°15'0 0.0
2017-Oct-07 10:28N 33°44' W 118°15'0 0.0
2017-Oct-07 09:58N 33°44' W 118°15'0 0.0
2017-Oct-07 09:28N 33°44' W 118°15'0 0.1
2017-Oct-07 08:58N 33°44' W 118°15'0 0.1
2017-Oct-07 08:28N 33°44' W 118°15'0 0.0
2017-Oct-07 07:58N 33°44' W 118°15'0 0.0
2017-Oct-07 07:28N 33°44' W 118°15'0 0.0
2017-Oct-07 06:58N 33°44' W 118°15'0 0.0
2017-Oct-07 06:28N 33°44' W 118°15'0 0.0
2017-Oct-07 05:58N 33°44' W 118°15'0 0.0
2017-Oct-07 05:28N 33°44' W 118°15'0 0.0
2017-Oct-07 04:58N 33°44' W 118°15'0 0.0
2017-Oct-07 04:28N 33°44' W 118°15'0 0.0
2017-Oct-07 03:58N 33°44' W 118°15'0 0.0
2017-Oct-07 03:28N 33°44' W 118°15'0 0.0
2017-Oct-07 02:58N 33°44' W 118°15'0 0.0
2017-Oct-07 02:28N 33°44' W 118°15'0 0.0
2017-Oct-07 01:58N 33°44' W 118°15'0 0.0
2017-Oct-07 01:28N 33°44' W 118°15'0 0.1
2017-Oct-07 00:58N 33°44' W 118°15'0 0.1
2017-Oct-07 00:28N 33°44' W 118°15'0 0.0
2017-Oct-06 23:58N 33°44' W 118°15'0 0.0
2017-Oct-06 23:28N 33°44' W 118°15'0 0.0
2017-Oct-06 22:58N 33°44' W 118°15'0 0.0
2017-Oct-06 22:28N 33°44' W 118°15'0 0.0
2017-Oct-06 21:58N 33°44' W 118°15'0 0.0
2017-Oct-06 21:28N 33°44' W 118°15'0 0.0
2017-Oct-06 20:58N 33°44' W 118°15'0 0.0
2017-Oct-06 20:28N 33°44' W 118°15'0 0.0
2017-Oct-06 19:58N 33°44' W 118°15'0 0.0
2017-Oct-06 19:28N 33°44' W 118°15'0 0.0
2017-Oct-06 18:58N 33°44' W 118°15'0 0.0
2017-Oct-06 18:28N 33°44' W 118°15'0 0.0
2017-Oct-06 17:58N 33°44' W 118°15'0 0.0
2017-Oct-06 17:28N 33°44' W 118°15'0 0.0
2017-Oct-06 16:58N 33°44' W 118°15'0 0.0
2017-Oct-06 16:28N 33°44' W 118°15'0 0.0
2017-Oct-06 15:52N 33°44' W 118°15'0 0.1
2017-Oct-06 15:28N 33°44' W 118°15'0 0.0
2017-Oct-06 14:58N 33°44' W 118°15'0 0.0
2017-Oct-06 14:28N 33°44' W 118°15'0 0.0
2017-Oct-06 13:58N 33°44' W 118°15'0 0.0
2017-Oct-06 13:28N 33°44' W 118°15'0 0.0
2017-Oct-06 12:55N 33°44' W 118°15'0 0.0
2017-Oct-06 12:28N 33°44' W 118°15'0 0.0
2017-Oct-06 11:58N 33°44' W 118°15'0 0.0
2017-Oct-06 11:28N 33°44' W 118°15'0 0.0
2017-Oct-06 10:58N 33°44' W 118°15'0 0.0
2017-Oct-06 10:28N 33°44' W 118°15'0 0.0
2017-Oct-06 09:58N 33°44' W 118°15'0 0.0
2017-Oct-06 09:28N 33°44' W 118°15'0 0.2
2017-Oct-06 08:55N 33°44' W 118°15'0 0.2
2017-Oct-06 08:28N 33°44' W 118°15'0 0.0
2017-Oct-06 07:58N 33°44' W 118°15'0 0.0
2017-Oct-06 07:28N 33°44' W 118°15'0 0.0
2017-Oct-06 06:58N 33°44' W 118°15'0 0.0
2017-Oct-06 06:28N 33°44' W 118°15'0 0.0
2017-Oct-06 05:58N 33°44' W 118°15'0 0.0
2017-Oct-06 05:28N 33°44' W 118°15'0 0.0
2017-Oct-06 04:58N 33°44' W 118°15'0 0.0
2017-Oct-06 04:28N 33°44' W 118°15'0 0.0
2017-Oct-06 03:58N 33°44' W 118°15'0 0.0
2017-Oct-06 03:28N 33°44' W 118°15'0 0.0
2017-Oct-06 02:58N 33°44' W 118°15'0 0.0
2017-Oct-06 02:28N 33°44' W 118°15'0 0.0
2017-Oct-06 01:58N 33°44' W 118°15'0 0.1
2017-Oct-06 01:28N 33°44' W 118°15'0 0.0
2017-Oct-06 00:55N 33°44' W 118°15'0 0.0
2017-Oct-06 00:28N 33°44' W 118°15'0 0.0
2017-Oct-05 23:55N 33°44' W 118°15'0 0.0
2017-Oct-05 23:28N 33°44' W 118°15'0 0.0
2017-Oct-05 22:58N 33°44' W 118°15'0 0.0
2017-Oct-05 22:28N 33°44' W 118°15'0 0.0
2017-Oct-05 21:58N 33°44' W 118°15'0 0.0
2017-Oct-05 21:28N 33°44' W 118°15'0 0.0
2017-Oct-05 20:58N 33°44' W 118°15'0 0.0
2017-Oct-05 20:28N 33°44' W 118°15'0 0.0
2017-Oct-05 19:58N 33°44' W 118°15'0 0.0
2017-Oct-05 19:28N 33°44' W 118°15'0 0.0
2017-Oct-05 18:58N 33°44' W 118°15'0 0.0
2017-Oct-05 18:28N 33°44' W 118°15'0 0.0
2017-Oct-05 17:58N 33°44' W 118°15'0 0.0
2017-Oct-05 17:28N 33°44' W 118°15'0 0.0
2017-Oct-05 16:58N 33°44' W 118°15'0 0.0
2017-Oct-05 15:28N 33°44' W 118°15'0 0.0
2017-Oct-05 14:58N 33°44' W 118°15'0 0.0
2017-Oct-05 14:28N 33°44' W 118°15'0 0.0
2017-Oct-05 13:58N 33°44' W 118°15'0 0.0
2017-Oct-05 13:25N 33°44' W 118°15'0 0.0
2017-Oct-05 12:55N 33°44' W 118°15'0 0.0
2017-Oct-05 12:28N 33°44' W 118°15'0 0.0
2017-Oct-05 11:58N 33°44' W 118°15'0 0.0
2017-Oct-05 11:30N 33°44' W 118°15'1 1.5
2017-Oct-05 11:00N 33°44' W 118°16'1 1.5
2017-Oct-05 10:30N 33°43' W 118°16'3 5.8
2017-Oct-05 10:01N 33°40' W 118°14'510.1
2017-Oct-05 09:31N 33°36' W 118°17'510.7
2017-Oct-05 09:00N 33°37' W 118°23'611.1
2017-Oct-05 08:30N 33°40' W 118°29'510.6
2017-Oct-05 08:00N 33°43' W 118°34'510.9
2017-Oct-05 07:30N 33°45' W 118°40'511.0
2017-Oct-05 07:00N 33°48' W 118°46'510.9
2017-Oct-05 06:30N 33°51' W 118°52'510.6
2017-Oct-05 06:00N 33°53' W 118°57'510.8
2017-Oct-05 05:30N 33°56' W 119°03'510.8
2017-Oct-05 05:00N 33°59' W 119°08'510.7
2017-Oct-05 04:31N 34°01' W 119°14'510.4
2017-Oct-05 04:01N 34°03' W 119°20'510.1
2017-Oct-05 03:30N 34°05' W 119°26'510.1
2017-Oct-05 03:00N 34°06' W 119°32'510.4
2017-Oct-05 02:30N 34°07' W 119°38'510.6
2017-Oct-05 02:00N 34°09' W 119°44'510.4
2017-Oct-05 01:30N 34°10' W 119°50'510.2
2017-Oct-05 01:00N 34°12' W 119°56'510.3
2017-Oct-05 00:30N 34°13' W 120°02'510.4
2017-Oct-05 00:01N 34°14' W 120°08'610.8
2017-Oct-04 23:29N 34°16' W 120°15'610.7
2017-Oct-04 22:58N 34°17' W 120°21'510.5
2017-Oct-04 22:29N 34°18' W 120°27'510.3
2017-Oct-04 22:00N 34°20' W 120°33'610.9
2017-Oct-04 21:28N 34°21' W 120°40'612.2
2017-Oct-04 20:59N 34°23' W 120°46'917.8
2017-Oct-04 20:28N 34°27' W 120°57'818.1
2017-Oct-04 20:00N 34°31' W 121°05'918.0
2017-Oct-04 19:31N 34°36' W 121°14'918.3
2017-Oct-04 19:01N 34°41' W 121°23'918.1
2017-Oct-04 18:31N 34°46' W 121°33'919.0
2017-Oct-04 18:01N 34°51' W 121°42'1018.9
2017-Oct-04 17:29N 34°57' W 121°52'919.4
2017-Oct-04 17:00N 35°02' W 122°02'1020.1
2017-Oct-04 16:31N 35°08' W 122°12'1020.1
2017-Oct-04 16:00N 35°13' W 122°22'1020.0
2017-Oct-04 15:30N 35°19' W 122°32'1121.2
2017-Oct-04 15:01N 35°24' W 122°43'1020.9
2017-Oct-04 14:31N 35°30' W 122°54'1121.1
2017-Oct-04 14:01N 35°35' W 123°05'1121.4
2017-Oct-04 13:31N 35°42' W 123°16'1121.5
2017-Oct-04 13:01N 35°49' W 123°26'1121.6
2017-Oct-04 12:31N 35°56' W 123°36'1121.5
2017-Oct-04 12:00N 36°02' W 123°46'1121.6
2017-Oct-04 11:30N 36°09' W 123°57'1121.6
2017-Oct-04 10:59N 36°16' W 124°08'1021.6
2017-Oct-04 10:30N 36°23' W 124°18'3521.6
2017-Oct-04 08:54N 36°44' W 124°52'1421.5
2017-Oct-04 08:16N 36°53' W 125°05'521.2
2017-Oct-04 08:00N 36°56' W 125°10'1121.2
2017-Oct-04 07:30N 37°03' W 125°21'1021.1
2017-Oct-04 07:00N 37°09' W 125°31'1020.7
2017-Oct-04 06:30N 37°15' W 125°42'1520.9
2017-Oct-04 05:47N 37°25' W 125°56'621.1
2017-Oct-04 05:30N 37°29' W 126°02'1121.1
2017-Oct-04 05:00N 37°35' W 126°13'  

Dump ship's entire track history